Jolyn — PJWG — position and weather

sailwx.info

Track history (hours):
 
Tides and Currents Weather Stations Pressure Air Temp Water Temp Dewpoint Dewpoint Depression Visibility Wind Speed Wind Dir Waves Ship Positions

Jolyn

Last reported at 2016-Feb-14 16:31 UTC. Time now 2016-Feb-14 17:02 UTC.
Position N 52°28' E 004°36'.

Length 89 m; draft 3.6 m.

Type: Cargo ship. MMSI: 306813000.

Date/timePositionNaut miles runAvg speedWind from/ knotsBaromVisibWave heightAir tempDewpointWater temp
2016-Feb-14 16:31N 52°28' E 004°36'0 0.0
2016-Feb-14 15:31N 52°28' E 004°36'0 0.0
2016-Feb-14 14:31N 52°28' E 004°36'0 0.0
2016-Feb-14 13:31N 52°28' E 004°36'0 0.0
2016-Feb-14 12:31N 52°28' E 004°36'0 0.0
2016-Feb-14 11:31N 52°28' E 004°36'0 0.0
2016-Feb-14 10:31N 52°28' E 004°36'0 0.0
2016-Feb-14 09:31N 52°28' E 004°36'0 0.0
2016-Feb-14 08:31N 52°28' E 004°36'0 0.0
2016-Feb-14 07:31N 52°28' E 004°36'0 0.0
2016-Feb-14 06:28N 52°28' E 004°36'0 0.0
2016-Feb-14 05:28N 52°28' E 004°36'0 0.0
2016-Feb-14 04:31N 52°28' E 004°36'0 0.0
2016-Feb-14 03:31N 52°28' E 004°36'0 0.0
2016-Feb-14 02:31N 52°28' E 004°36'0 0.0
2016-Feb-14 01:31N 52°28' E 004°36'0 0.0
2016-Feb-14 00:31N 52°28' E 004°36'0 0.0
2016-Feb-13 23:31N 52°28' E 004°36'0 0.0
2016-Feb-13 22:31N 52°28' E 004°36'0 0.0
2016-Feb-13 21:31N 52°28' E 004°36'0 0.0
2016-Feb-13 20:31N 52°28' E 004°36'0 0.0
2016-Feb-13 19:31N 52°28' E 004°36'0 0.0
2016-Feb-13 18:31N 52°28' E 004°36'0 0.0
2016-Feb-13 17:28N 52°28' E 004°36'0 0.0
2016-Feb-13 16:31N 52°28' E 004°36'0 0.0
2016-Feb-13 15:31N 52°28' E 004°36'0 0.0
2016-Feb-13 14:31N 52°28' E 004°36'0 0.0
2016-Feb-13 13:31N 52°28' E 004°36'0 0.0
2016-Feb-13 12:31N 52°28' E 004°36'0 0.0
2016-Feb-13 11:31N 52°28' E 004°36'0 0.0
2016-Feb-13 10:31N 52°28' E 004°36'0 0.0
2016-Feb-13 09:31N 52°28' E 004°36'0 0.0
2016-Feb-13 08:31N 52°28' E 004°36'0 0.0
2016-Feb-13 07:31N 52°28' E 004°36'0 0.0
2016-Feb-13 06:31N 52°28' E 004°36'0 0.0
2016-Feb-13 05:31N 52°28' E 004°36'0 0.0
2016-Feb-13 04:31N 52°28' E 004°36'0 0.0
2016-Feb-13 03:31N 52°28' E 004°36'0 0.0
2016-Feb-13 02:31N 52°28' E 004°36'0 0.0
2016-Feb-13 01:31N 52°28' E 004°36'0 0.0
2016-Feb-13 00:31N 52°28' E 004°36'0 0.0
2016-Feb-12 23:31N 52°28' E 004°36'0 0.0
2016-Feb-12 22:34N 52°28' E 004°36'0 0.0
2016-Feb-12 21:34N 52°28' E 004°36'0 0.0
2016-Feb-12 20:34N 52°28' E 004°36'7 7.2
2016-Feb-12 19:33N 52°29' E 004°25'7 6.6
2016-Feb-12 18:33N 52°29' E 004°14'6 6.3
2016-Feb-12 17:33N 52°28' E 004°03'7610.8
2016-Feb-12 10:33N 52°50' E 002°04'1413.9
2016-Feb-12 09:34N 52°58' E 001°45'1313.4
2016-Feb-12 08:33N 53°07' E 001°28'1512.9
2016-Feb-12 07:26N 53°18' E 001°12'1112.4
2016-Feb-12 06:31N 53°26' E 000°59'1312.4
2016-Feb-12 05:31N 53°33' E 000°41'1212.8
2016-Feb-12 04:33N 53°42' E 000°27'1212.5
2016-Feb-12 03:33N 53°52' E 000°15'1111.3
2016-Feb-12 02:33N 54°02' E 000°05'1110.6
2016-Feb-12 01:33N 54°10' W 000°05'1010.0
2016-Feb-12 00:33N 54°18' W 000°15'10 9.7
2016-Feb-11 23:33N 54°26' W 000°25'10 9.6
2016-Feb-11 22:33N 54°34' W 000°36'1010.5
2016-Feb-11 21:33N 54°40' W 000°51'1111.2
2016-Feb-11 20:33N 54°47' W 001°05'1111.4
2016-Feb-11 19:33N 54°55' W 001°20'0 0.0
2016-Feb-10 19:16N 54°55' W 001°20'2 2.5
2016-Feb-10 18:33N 54°55' W 001°17'9 9.2
2016-Feb-10 17:33N 54°51' W 001°02'7 7.4
2016-Feb-10 16:33N 54°48' W 000°51'6 6.2
2016-Feb-10 15:33N 54°45' W 000°41'6 6.3
2016-Feb-10 14:33N 54°43' W 000°31'7 6.7
2016-Feb-10 13:33N 54°41' W 000°20'7 6.9
2016-Feb-10 12:33N 54°38' W 000°09'7 7.0
2016-Feb-10 11:33N 54°36' E 000°03'7 6.8
2016-Feb-10 10:33N 54°33' E 000°14'7 6.5
2016-Feb-10 09:33N 54°31' E 000°24'6 5.6
2016-Feb-10 08:33N 54°29' E 000°33'148 8.7
2016-Feb-09 15:26N 54°04' E 004°44'8 9.1
2016-Feb-09 14:33N 54°05' E 004°57'7 7.5
2016-Feb-09 13:33N 54°06' E 005°10'6 6.3
2016-Feb-09 12:33N 54°06' E 005°21'6 5.8
2016-Feb-09 11:33N 54°07' E 005°30'6 5.7
2016-Feb-09 10:32N 54°09' E 005°40'4 4.4
2016-Feb-09 09:33N 54°09' E 005°47'3 2.9
2016-Feb-09 08:31N 54°10' E 005°52'35 2.9
2016-Feb-08 20:30N 54°13' E 006°51'3 2.7
2016-Feb-08 19:31N 54°12' E 006°56'3 2.8
2016-Feb-08 18:33N 54°13' E 007°00'3 3.0
2016-Feb-08 17:33N 54°13' E 007°05'4 3.9
2016-Feb-08 16:33N 54°13' E 007°12'5 4.8
2016-Feb-08 15:33N 54°12' E 007°20'5 5.1
2016-Feb-08 14:33N 54°12' E 007°29'5 5.0
2016-Feb-08 13:33N 54°12' E 007°37'6 6.4
2016-Feb-08 12:33N 54°08' E 007°47'7 6.9
2016-Feb-08 11:32N 54°05' E 007°57'6 6.2
2016-Feb-08 10:33N 54°02' E 008°06'6 6.2
2016-Feb-08 09:33N 54°01' E 008°16'8 8.3
2016-Feb-08 08:33N 53°59' E 008°30'8 7.9
2016-Feb-08 07:33N 53°54' E 008°41'1110.6
2016-Feb-08 06:33N 53°51' E 008°58'7 6.6
2016-Feb-08 05:33N 53°54' E 009°09'7 6.6
2016-Feb-08 04:33N 53°59' E 009°16'19 5.9
2016-Feb-08 01:18N 54°14' E 009°36'5 7.0
2016-Feb-08 00:33N 54°18' E 009°42'5 5.2
2016-Feb-07 23:33N 54°22' E 009°48'7 7.1
2016-Feb-07 22:33N 54°21' E 009°60'5 4.7
2016-Feb-07 21:33N 54°22' E 010°08'0 0.0
2016-Feb-07 20:33N 54°22' E 010°08'0 0.5
2016-Feb-07 19:33N 54°22' E 010°08'2 1.7
2016-Feb-07 18:33N 54°23' E 010°11'3 2.8
2016-Feb-07 17:33N 54°25' E 010°13'10 9.7
2016-Feb-07 16:33N 54°32' E 010°25'1010.4
2016-Feb-07 15:33N 54°35' E 010°43'1010.0
2016-Feb-07 14:33N 54°36' E 010°60'8 7.7
2016-Feb-07 13:33N 54°36' E 011°13'1010.1
2016-Feb-07 12:33N 54°32' E 011°29'1010.1
2016-Feb-07 11:33N 54°28' E 011°45'1010.1
2016-Feb-07 10:33N 54°27' E 012°02'10 9.6
2016-Feb-07 09:33N 54°34' E 012°13'1110.7
2016-Feb-07 08:33N 54°42' E 012°26'1211.3
2016-Feb-07 07:32N 54°48' E 012°43'2110.7
2016-Feb-07 05:33N 54°55' E 013°17'1010.2
2016-Feb-07 04:33N 54°59' E 013°34'10 9.8
2016-Feb-07 03:33N 55°02' E 013°50'1010.2
2016-Feb-07 02:33N 55°06' E 014°06'1010.2
2016-Feb-07 01:33N 55°14' E 014°17'1010.3
2016-Feb-07 00:33N 55°23' E 014°28'1010.0
2016-Feb-06 23:33N 55°29' E 014°41'1010.0
2016-Feb-06 22:33N 55°35' E 014°56'9 9.5
2016-Feb-06 21:33N 55°39' E 015°11'96 9.3
2016-Feb-06 11:12N 56°52' E 017°05'6 9.8
2016-Feb-06 10:33N 56°58' E 017°08'1010.1
2016-Feb-06 09:33N 57°07' E 017°12'1010.0
2016-Feb-06 08:33N 57°17' E 017°18'1010.1
2016-Feb-06 07:33N 57°26' E 017°27'1010.0
2016-Feb-06 06:33N 57°35' E 017°35'  
Track history (hours):
 
Tides and Currents Weather Stations Pressure Air Temp Water Temp Dewpoint Dewpoint Depression Visibility Wind Speed Wind Dir Waves Ship Positions

Jolyn

Last reported at 2016-Feb-14 16:31 UTC. Time now 2016-Feb-14 17:02 UTC.
Position N 52°28' E 004°36'.

Length 89 m; draft 3.6 m.

Type: Cargo ship. MMSI: 306813000.

Date/timePositionNaut miles runAvg speedWind from/ knotsBaromVisibWave heightAir tempDewpointWater temp
2016-Feb-14 16:31N 52°28' E 004°36'0 0.0
2016-Feb-14 15:31N 52°28' E 004°36'0 0.0
2016-Feb-14 14:31N 52°28' E 004°36'0 0.0
2016-Feb-14 13:31N 52°28' E 004°36'0 0.0
2016-Feb-14 12:31N 52°28' E 004°36'0 0.0
2016-Feb-14 11:31N 52°28' E 004°36'0 0.0
2016-Feb-14 10:31N 52°28' E 004°36'0 0.0
2016-Feb-14 09:31N 52°28' E 004°36'0 0.0
2016-Feb-14 08:31N 52°28' E 004°36'0 0.0
2016-Feb-14 07:31N 52°28' E 004°36'0 0.0
2016-Feb-14 06:28N 52°28' E 004°36'0 0.0
2016-Feb-14 05:28N 52°28' E 004°36'0 0.0
2016-Feb-14 04:31N 52°28' E 004°36'0 0.0
2016-Feb-14 03:31N 52°28' E 004°36'0 0.0
2016-Feb-14 02:31N 52°28' E 004°36'0 0.0
2016-Feb-14 01:31N 52°28' E 004°36'0 0.0
2016-Feb-14 00:31N 52°28' E 004°36'0 0.0
2016-Feb-13 23:31N 52°28' E 004°36'0 0.0
2016-Feb-13 22:31N 52°28' E 004°36'0 0.0
2016-Feb-13 21:31N 52°28' E 004°36'0 0.0
2016-Feb-13 20:31N 52°28' E 004°36'0 0.0
2016-Feb-13 19:31N 52°28' E 004°36'0 0.0
2016-Feb-13 18:31N 52°28' E 004°36'0 0.0
2016-Feb-13 17:28N 52°28' E 004°36'0 0.0
2016-Feb-13 16:31N 52°28' E 004°36'0 0.0
2016-Feb-13 15:31N 52°28' E 004°36'0 0.0
2016-Feb-13 14:31N 52°28' E 004°36'0 0.0
2016-Feb-13 13:31N 52°28' E 004°36'0 0.0
2016-Feb-13 12:31N 52°28' E 004°36'0 0.0
2016-Feb-13 11:31N 52°28' E 004°36'0 0.0
2016-Feb-13 10:31N 52°28' E 004°36'0 0.0
2016-Feb-13 09:31N 52°28' E 004°36'0 0.0
2016-Feb-13 08:31N 52°28' E 004°36'0 0.0
2016-Feb-13 07:31N 52°28' E 004°36'0 0.0
2016-Feb-13 06:31N 52°28' E 004°36'0 0.0
2016-Feb-13 05:31N 52°28' E 004°36'0 0.0
2016-Feb-13 04:31N 52°28' E 004°36'0 0.0
2016-Feb-13 03:31N 52°28' E 004°36'0 0.0
2016-Feb-13 02:31N 52°28' E 004°36'0 0.0
2016-Feb-13 01:31N 52°28' E 004°36'0 0.0
2016-Feb-13 00:31N 52°28' E 004°36'0 0.0
2016-Feb-12 23:31N 52°28' E 004°36'0 0.0
2016-Feb-12 22:34N 52°28' E 004°36'0 0.0
2016-Feb-12 21:34N 52°28' E 004°36'0 0.0
2016-Feb-12 20:34N 52°28' E 004°36'7 7.2
2016-Feb-12 19:33N 52°29' E 004°25'7 6.6
2016-Feb-12 18:33N 52°29' E 004°14'6 6.3
2016-Feb-12 17:33N 52°28' E 004°03'7610.8
2016-Feb-12 10:33N 52°50' E 002°04'1413.9
2016-Feb-12 09:34N 52°58' E 001°45'1313.4
2016-Feb-12 08:33N 53°07' E 001°28'1512.9
2016-Feb-12 07:26N 53°18' E 001°12'1112.4
2016-Feb-12 06:31N 53°26' E 000°59'1312.4
2016-Feb-12 05:31N 53°33' E 000°41'1212.8
2016-Feb-12 04:33N 53°42' E 000°27'1212.5
2016-Feb-12 03:33N 53°52' E 000°15'1111.3
2016-Feb-12 02:33N 54°02' E 000°05'1110.6
2016-Feb-12 01:33N 54°10' W 000°05'1010.0
2016-Feb-12 00:33N 54°18' W 000°15'10 9.7
2016-Feb-11 23:33N 54°26' W 000°25'10 9.6
2016-Feb-11 22:33N 54°34' W 000°36'1010.5
2016-Feb-11 21:33N 54°40' W 000°51'1111.2
2016-Feb-11 20:33N 54°47' W 001°05'1111.4
2016-Feb-11 19:33N 54°55' W 001°20'0 0.0
2016-Feb-10 19:16N 54°55' W 001°20'2 2.5
2016-Feb-10 18:33N 54°55' W 001°17'9 9.2
2016-Feb-10 17:33N 54°51' W 001°02'7 7.4
2016-Feb-10 16:33N 54°48' W 000°51'6 6.2
2016-Feb-10 15:33N 54°45' W 000°41'6 6.3
2016-Feb-10 14:33N 54°43' W 000°31'7 6.7
2016-Feb-10 13:33N 54°41' W 000°20'7 6.9
2016-Feb-10 12:33N 54°38' W 000°09'7 7.0
2016-Feb-10 11:33N 54°36' E 000°03'7 6.8
2016-Feb-10 10:33N 54°33' E 000°14'7 6.5
2016-Feb-10 09:33N 54°31' E 000°24'6 5.6
2016-Feb-10 08:33N 54°29' E 000°33'148 8.7
2016-Feb-09 15:26N 54°04' E 004°44'8 9.1
2016-Feb-09 14:33N 54°05' E 004°57'7 7.5
2016-Feb-09 13:33N 54°06' E 005°10'6 6.3
2016-Feb-09 12:33N 54°06' E 005°21'6 5.8
2016-Feb-09 11:33N 54°07' E 005°30'6 5.7
2016-Feb-09 10:32N 54°09' E 005°40'4 4.4
2016-Feb-09 09:33N 54°09' E 005°47'3 2.9
2016-Feb-09 08:31N 54°10' E 005°52'35 2.9
2016-Feb-08 20:30N 54°13' E 006°51'3 2.7
2016-Feb-08 19:31N 54°12' E 006°56'3 2.8
2016-Feb-08 18:33N 54°13' E 007°00'3 3.0
2016-Feb-08 17:33N 54°13' E 007°05'4 3.9
2016-Feb-08 16:33N 54°13' E 007°12'5 4.8
2016-Feb-08 15:33N 54°12' E 007°20'5 5.1
2016-Feb-08 14:33N 54°12' E 007°29'5 5.0
2016-Feb-08 13:33N 54°12' E 007°37'6 6.4
2016-Feb-08 12:33N 54°08' E 007°47'7 6.9
2016-Feb-08 11:32N 54°05' E 007°57'6 6.2
2016-Feb-08 10:33N 54°02' E 008°06'6 6.2
2016-Feb-08 09:33N 54°01' E 008°16'8 8.3
2016-Feb-08 08:33N 53°59' E 008°30'8 7.9
2016-Feb-08 07:33N 53°54' E 008°41'1110.6
2016-Feb-08 06:33N 53°51' E 008°58'7 6.6
2016-Feb-08 05:33N 53°54' E 009°09'7 6.6
2016-Feb-08 04:33N 53°59' E 009°16'19 5.9
2016-Feb-08 01:18N 54°14' E 009°36'5 7.0
2016-Feb-08 00:33N 54°18' E 009°42'5 5.2
2016-Feb-07 23:33N 54°22' E 009°48'7 7.1
2016-Feb-07 22:33N 54°21' E 009°60'5 4.7
2016-Feb-07 21:33N 54°22' E 010°08'0 0.0
2016-Feb-07 20:33N 54°22' E 010°08'0 0.5
2016-Feb-07 19:33N 54°22' E 010°08'2 1.7
2016-Feb-07 18:33N 54°23' E 010°11'3 2.8
2016-Feb-07 17:33N 54°25' E 010°13'10 9.7
2016-Feb-07 16:33N 54°32' E 010°25'1010.4
2016-Feb-07 15:33N 54°35' E 010°43'1010.0
2016-Feb-07 14:33N 54°36' E 010°60'8 7.7
2016-Feb-07 13:33N 54°36' E 011°13'1010.1
2016-Feb-07 12:33N 54°32' E 011°29'1010.1
2016-Feb-07 11:33N 54°28' E 011°45'1010.1
2016-Feb-07 10:33N 54°27' E 012°02'10 9.6
2016-Feb-07 09:33N 54°34' E 012°13'1110.7
2016-Feb-07 08:33N 54°42' E 012°26'1211.3
2016-Feb-07 07:32N 54°48' E 012°43'2110.7
2016-Feb-07 05:33N 54°55' E 013°17'1010.2
2016-Feb-07 04:33N 54°59' E 013°34'10 9.8
2016-Feb-07 03:33N 55°02' E 013°50'1010.2
2016-Feb-07 02:33N 55°06' E 014°06'1010.2
2016-Feb-07 01:33N 55°14' E 014°17'1010.3
2016-Feb-07 00:33N 55°23' E 014°28'1010.0
2016-Feb-06 23:33N 55°29' E 014°41'1010.0
2016-Feb-06 22:33N 55°35' E 014°56'9 9.5
2016-Feb-06 21:33N 55°39' E 015°11'96 9.3
2016-Feb-06 11:12N 56°52' E 017°05'6 9.8
2016-Feb-06 10:33N 56°58' E 017°08'1010.1
2016-Feb-06 09:33N 57°07' E 017°12'1010.0
2016-Feb-06 08:33N 57°17' E 017°18'1010.1
2016-Feb-06 07:33N 57°26' E 017°27'1010.0
2016-Feb-06 06:33N 57°35' E 017°35'  

Dump ship's entire track history